Otsego, Minnesota
Current Conditions -  °F | °C
As of 9:53 AM on Tuesday 21 Oct 2014 (Local Time) from KMIC Reporting Station
Clear Clear  
Wind Chill: 43°   Ceiling: Unl
Heat Index: 48°   Visibility: 10mi
Dew Point: 39°   Wind: 10mph
Humidity: 71%   Direction: 100°E
Pressure: 30.19"   Gusts: NA
Location:  45.1964°N, 93.4758°W
Report Text: KMIC 211453Z 10009KT 10SM CLR 09/04 A3019 RMK AO2 SLP228 I3001 T00890039 50010
Loading
Personal Weather Stations






























Interactive Weather Map
Tropical Storm Tracking
New forecast layout! Learn more

10-Day Weather Forecast

Advertisements
Track Severe Weather on mobile